Terminal Aerodrome Forecast
Issued by NWS

Current Version | Previous Version | Text Only | Print | Product List | Glossary On
Versions: 1 2 3 4 5 6 7 8 9 10 11 12 13 14 15 16 17 18 19 20
000
FTUS43 KILX 111125
TAFBMI
TAF
KBMI 111125Z 1112/1212 16011G19KT P6SM VCSH OVC040
     FM111500 17012KT 5SM -SN OVC040
     FM111700 18012KT 4SM -SN OVC015
      TEMPO 1117/1119 4SM -FZRA BR
     FM111900 18012G20KT 3SM -RA BR OVC015
     FM112300 20008KT 2SM -RASN BR OVC008
     FM120300 24008KT P6SM VCSH OVC008
     FM120700 29010KT P6SM BKN008=

USA.gov is the U.S. government's official web portal to all federal, state and local government web resources and services.